This is the latest recevied weather packets stored in our database for station/object KN6KS. If no packets are shown the sender has not sent any weather packets the latest 10 day(s).
| Time | Temp. | Humidity | Pressure | Rain* | Wind** | Luminosity | Snow |
|---|---|---|---|---|---|---|---|
| 1777465701 | 9.44° C | 64% | 1016.8 hPa | 0 mm | - | 0 W/m² | - |
| 1777465397 | 8.89° C | 66% | 1016.9 hPa | 0 mm | - | 0 W/m² | - |
| 1777465096 | 9.44° C | 65% | 1016.7 hPa | 0 mm | - | 0 W/m² | - |
| 1777464792 | 10° C | 63% | 1016.6 hPa | 0 mm | - | 0 W/m² | - |
| 1777464488 | 10° C | 61% | 1016.6 hPa | 0 mm | - | 0 W/m² | - |
| 1777464184 | 10° C | 61% | 1016.9 hPa | 0 mm | - | 0 W/m² | - |
| 1777463580 | 10° C | 61% | 1016.7 hPa | 0 mm | - | 0 W/m² | - |
| 1777463275 | 10° C | 61% | 1016.3 hPa | 0 mm | - | 0 W/m² | - |
| 1777462667 | 9.44° C | 65% | 1016.6 hPa | 0 mm | - | 0 W/m² | - |
| 1777462362 | 11.11° C | 58% | 1016.4 hPa | 0 mm | - | 0 W/m² | - |
| 1777462058 | 10.56° C | 59% | 1016.8 hPa | 0 mm | - | 0 W/m² | - |
| 1777461756 | 10° C | 60% | 1016.6 hPa | 0 mm | - | 0 W/m² | - |
| 1777461451 | 10° C | 62% | 1016.4 hPa | 0 mm | - | 0 W/m² | - |
| 1777461148 | 10° C | 62% | 1016.6 hPa | 0 mm | - | 0 W/m² | - |
| 1777460842 | 10° C | 62% | 1016.4 hPa | 0 mm | - | 0 W/m² | - |
| 1777460539 | 10.56° C | 61% | 1016.4 hPa | 0 mm | - | 0 W/m² | - |
| 1777460234 | 10.56° C | 60% | 1016.4 hPa | 0 mm | - | 0 W/m² | - |
| 1777459932 | 10.56° C | 60% | 1016.2 hPa | 0 mm | - | 0 W/m² | - |
| 1777459629 | 10.56° C | 61% | 1016.4 hPa | 0 mm | - | 0 W/m² | - |
| 1777459024 | 10.56° C | 63% | 1016.2 hPa | 0 mm | - | 0 W/m² | - |
| 1777458721 | 10.56° C | 64% | 1016.3 hPa | 0 mm | - | 0 W/m² | - |
| 1777458416 | 10.56° C | 65% | 1016.4 hPa | 0 mm | - | 0 W/m² | - |
| 1777457808 | 10.56° C | 65% | 1016.4 hPa | 0 mm | - | 0 W/m² | - |
| 1777457503 | 10.56° C | 66% | 1016.4 hPa | 0 mm | - | 0 W/m² | - |
| 1777457199 | 10.56° C | 66% | 1016.3 hPa | 0 mm | - | 0 W/m² | - |
* Rain latest hour (hover to see other rain measurements)
** Current wind speed in m/s (hover to see current wind gust speed)